sensor_id;sensor_type;location;lat;lon;timestamp;pressure;altitude;pressure_sealevel;temperature
20092;BMP180;10205;49.678;6.560;2023-02-27T00:00:38;100639.00;;;5.00
20092;BMP180;10205;49.678;6.560;2023-02-27T00:03:06;100660.00;;;4.90
20092;BMP180;10205;49.678;6.560;2023-02-27T00:05:34;100645.00;;;4.90
20092;BMP180;10205;49.678;6.560;2023-02-27T00:08:02;100653.00;;;4.90
20092;BMP180;10205;49.678;6.560;2023-02-27T00:10:30;100648.00;;;4.90
20092;BMP180;10205;49.678;6.560;2023-02-27T00:12:57;100652.00;;;4.90
20092;BMP180;10205;49.678;6.560;2023-02-27T00:15:25;100653.00;;;4.90
20092;BMP180;10205;49.678;6.560;2023-02-27T00:17:53;100647.00;;;4.90
20092;BMP180;10205;49.678;6.560;2023-02-27T00:20:21;100644.00;;;4.90
20092;BMP180;10205;49.678;6.560;2023-02-27T00:22:49;100649.00;;;4.80
20092;BMP180;10205;49.678;6.560;2023-02-27T00:25:17;100642.00;;;4.80
20092;BMP180;10205;49.678;6.560;2023-02-27T00:27:44;100649.00;;;4.80
20092;BMP180;10205;49.678;6.560;2023-02-27T00:30:15;100654.00;;;4.80
20092;BMP180;10205;49.678;6.560;2023-02-27T00:32:42;100644.00;;;4.80
20092;BMP180;10205;49.678;6.560;2023-02-27T00:35:11;100640.00;;;4.80
20092;BMP180;10205;49.678;6.560;2023-02-27T00:37:39;100641.00;;;4.80
20092;BMP180;10205;49.678;6.560;2023-02-27T00:40:10;100651.00;;;4.80
20092;BMP180;10205;49.678;6.560;2023-02-27T00:42:40;100643.00;;;4.70
20092;BMP180;10205;49.678;6.560;2023-02-27T00:45:08;100659.00;;;4.70
20092;BMP180;10205;49.678;6.560;2023-02-27T00:47:37;100658.00;;;4.70
20092;BMP180;10205;49.678;6.560;2023-02-27T00:50:05;100647.00;;;4.70
20092;BMP180;10205;49.678;6.560;2023-02-27T00:52:34;100648.00;;;4.60
20092;BMP180;10205;49.678;6.560;2023-02-27T00:55:01;100651.00;;;4.70
20092;BMP180;10205;49.678;6.560;2023-02-27T00:57:31;100652.00;;;4.60
20092;BMP180;10205;49.678;6.560;2023-02-27T00:59:58;100653.00;;;4.60
20092;BMP180;10205;49.678;6.560;2023-02-27T01:02:25;100653.00;;;4.60
20092;BMP180;10205;49.678;6.560;2023-02-27T01:04:52;100644.00;;;4.50
20092;BMP180;10205;49.678;6.560;2023-02-27T01:07:19;100649.00;;;4.50
20092;BMP180;10205;49.678;6.560;2023-02-27T01:09:46;100648.00;;;4.50
20092;BMP180;10205;49.678;6.560;2023-02-27T01:12:14;100652.00;;;4.50
20092;BMP180;10205;49.678;6.560;2023-02-27T01:14:42;100657.00;;;4.40
20092;BMP180;10205;49.678;6.560;2023-02-27T01:17:09;100653.00;;;4.40
20092;BMP180;10205;49.678;6.560;2023-02-27T01:19:37;100642.00;;;4.40
20092;BMP180;10205;49.678;6.560;2023-02-27T01:22:04;100649.00;;;4.40
20092;BMP180;10205;49.678;6.560;2023-02-27T01:24:31;100656.00;;;4.30
20092;BMP180;10205;49.678;6.560;2023-02-27T01:26:58;100660.00;;;4.30
20092;BMP180;10205;49.678;6.560;2023-02-27T01:29:25;100649.00;;;4.30
20092;BMP180;10205;49.678;6.560;2023-02-27T01:31:54;100659.00;;;4.30
20092;BMP180;10205;49.678;6.560;2023-02-27T01:34:21;100658.00;;;4.20
20092;BMP180;10205;49.678;6.560;2023-02-27T01:36:48;100644.00;;;4.20
20092;BMP180;10205;49.678;6.560;2023-02-27T01:39:18;100641.00;;;4.20
20092;BMP180;10205;49.678;6.560;2023-02-27T01:41:46;100646.00;;;4.20
20092;BMP180;10205;49.678;6.560;2023-02-27T01:44:14;100645.00;;;4.20
20092;BMP180;10205;49.678;6.560;2023-02-27T01:46:41;100651.00;;;4.20
20092;BMP180;10205;49.678;6.560;2023-02-27T01:49:18;100651.00;;;4.20
20092;BMP180;10205;49.678;6.560;2023-02-27T01:51:51;100647.00;;;4.20
20092;BMP180;10205;49.678;6.560;2023-02-27T01:54:23;100649.00;;;4.20
20092;BMP180;10205;49.678;6.560;2023-02-27T01:56:51;100655.00;;;4.10
20092;BMP180;10205;49.678;6.560;2023-02-27T01:59:20;100645.00;;;4.20
20092;BMP180;10205;49.678;6.560;2023-02-27T02:01:48;100639.00;;;4.10
20092;BMP180;10205;49.678;6.560;2023-02-27T02:04:24;100647.00;;;4.10
20092;BMP180;10205;49.678;6.560;2023-02-27T02:06:58;100655.00;;;4.10
20092;BMP180;10205;49.678;6.560;2023-02-27T02:09:28;100644.00;;;4.10
20092;BMP180;10205;49.678;6.560;2023-02-27T02:12:03;100646.00;;;4.10
20092;BMP180;10205;49.678;6.560;2023-02-27T02:14:31;100649.00;;;4.10
20092;BMP180;10205;49.678;6.560;2023-02-27T02:17:14;100636.00;;;4.00
20092;BMP180;10205;49.678;6.560;2023-02-27T02:20:38;100639.00;;;4.00
20092;BMP180;10205;49.678;6.560;2023-02-27T02:23:47;100640.00;;;4.00
20092;BMP180;10205;49.678;6.560;2023-02-27T02:26:38;100639.00;;;3.90
20092;BMP180;10205;49.678;6.560;2023-02-27T02:37:03;100656.00;;;3.80
20092;BMP180;10205;49.678;6.560;2023-02-27T02:40:01;100645.00;;;3.70
20092;BMP180;10205;49.678;6.560;2023-02-27T02:42:37;100648.00;;;3.80
20092;BMP180;10205;49.678;6.560;2023-02-27T02:45:17;100649.00;;;3.80
20092;BMP180;10205;49.678;6.560;2023-02-27T02:48:02;100645.00;;;3.80
20092;BMP180;10205;49.678;6.560;2023-02-27T02:50:40;100643.00;;;3.80
20092;BMP180;10205;49.678;6.560;2023-02-27T02:53:21;100644.00;;;3.80
20092;BMP180;10205;49.678;6.560;2023-02-27T02:55:57;100635.00;;;3.80
20092;BMP180;10205;49.678;6.560;2023-02-27T02:58:33;100628.00;;;3.80
20092;BMP180;10205;49.678;6.560;2023-02-27T03:01:09;100631.00;;;3.80
20092;BMP180;10205;49.678;6.560;2023-02-27T03:03:47;100641.00;;;3.80
20092;BMP180;10205;49.678;6.560;2023-02-27T03:06:22;100640.00;;;3.80
20092;BMP180;10205;49.678;6.560;2023-02-27T03:08:56;100641.00;;;3.80
20092;BMP180;10205;49.678;6.560;2023-02-27T03:11:33;100644.00;;;3.80
20092;BMP180;10205;49.678;6.560;2023-02-27T03:14:08;100655.00;;;3.80
20092;BMP180;10205;49.678;6.560;2023-02-27T03:16:40;100654.00;;;3.70
20092;BMP180;10205;49.678;6.560;2023-02-27T03:19:14;100648.00;;;3.70
20092;BMP180;10205;49.678;6.560;2023-02-27T03:21:50;100651.00;;;3.70
20092;BMP180;10205;49.678;6.560;2023-02-27T03:24:25;100652.00;;;3.70
20092;BMP180;10205;49.678;6.560;2023-02-27T03:26:57;100651.00;;;3.70
20092;BMP180;10205;49.678;6.560;2023-02-27T03:29:37;100659.00;;;3.70
20092;BMP180;10205;49.678;6.560;2023-02-27T03:32:11;100655.00;;;3.70
20092;BMP180;10205;49.678;6.560;2023-02-27T03:34:40;100674.00;;;3.60
20092;BMP180;10205;49.678;6.560;2023-02-27T03:37:23;100657.00;;;3.60
20092;BMP180;10205;49.678;6.560;2023-02-27T03:40:00;100680.00;;;3.60
20092;BMP180;10205;49.678;6.560;2023-02-27T03:42:37;100664.00;;;3.60
20092;BMP180;10205;49.678;6.560;2023-02-27T03:45:17;100667.00;;;3.60
20092;BMP180;10205;49.678;6.560;2023-02-27T03:47:46;100665.00;;;3.50
20092;BMP180;10205;49.678;6.560;2023-02-27T03:50:14;100673.00;;;3.50
20092;BMP180;10205;49.678;6.560;2023-02-27T03:52:41;100673.00;;;3.50
20092;BMP180;10205;49.678;6.560;2023-02-27T03:55:19;100667.00;;;3.50
20092;BMP180;10205;49.678;6.560;2023-02-27T03:57:50;100668.00;;;3.50
20092;BMP180;10205;49.678;6.560;2023-02-27T04:00:21;100672.00;;;3.50
20092;BMP180;10205;49.678;6.560;2023-02-27T04:02:50;100669.00;;;3.50
20092;BMP180;10205;49.678;6.560;2023-02-27T04:05:20;100675.00;;;3.40
20092;BMP180;10205;49.678;6.560;2023-02-27T04:08:04;100681.00;;;3.40
20092;BMP180;10205;49.678;6.560;2023-02-27T04:10:53;100689.00;;;3.40
20092;BMP180;10205;49.678;6.560;2023-02-27T04:13:50;100684.00;;;3.40
20092;BMP180;10205;49.678;6.560;2023-02-27T04:16:44;100685.00;;;3.40
20092;BMP180;10205;49.678;6.560;2023-02-27T04:19:37;100690.00;;;3.40
20092;BMP180;10205;49.678;6.560;2023-02-27T04:22:24;100693.00;;;3.40
20092;BMP180;10205;49.678;6.560;2023-02-27T04:25:04;100688.00;;;3.30
20092;BMP180;10205;49.678;6.560;2023-02-27T04:27:40;100689.00;;;3.30
20092;BMP180;10205;49.678;6.560;2023-02-27T04:30:28;100685.00;;;3.30
20092;BMP180;10205;49.678;6.560;2023-02-27T04:33:07;100695.00;;;3.30
20092;BMP180;10205;49.678;6.560;2023-02-27T04:35:42;100694.00;;;3.30
20092;BMP180;10205;49.678;6.560;2023-02-27T04:38:18;100688.00;;;3.30
20092;BMP180;10205;49.678;6.560;2023-02-27T04:40:55;100697.00;;;3.20
20092;BMP180;10205;49.678;6.560;2023-02-27T04:43:25;100701.00;;;3.20
20092;BMP180;10205;49.678;6.560;2023-02-27T04:45:58;100705.00;;;3.20
20092;BMP180;10205;49.678;6.560;2023-02-27T04:48:31;100709.00;;;3.20
20092;BMP180;10205;49.678;6.560;2023-02-27T04:51:08;100712.00;;;3.20
20092;BMP180;10205;49.678;6.560;2023-02-27T04:53:41;100711.00;;;3.20
20092;BMP180;10205;49.678;6.560;2023-02-27T04:56:14;100709.00;;;3.10
20092;BMP180;10205;49.678;6.560;2023-02-27T04:58:47;100718.00;;;3.10
20092;BMP180;10205;49.678;6.560;2023-02-27T05:01:24;100710.00;;;3.10
20092;BMP180;10205;49.678;6.560;2023-02-27T05:03:56;100715.00;;;3.10
20092;BMP180;10205;49.678;6.560;2023-02-27T05:06:29;100718.00;;;3.10
20092;BMP180;10205;49.678;6.560;2023-02-27T05:09:05;100727.00;;;3.10
20092;BMP180;10205;49.678;6.560;2023-02-27T05:11:42;100732.00;;;3.10
20092;BMP180;10205;49.678;6.560;2023-02-27T05:14:17;100727.00;;;3.10
20092;BMP180;10205;49.678;6.560;2023-02-27T05:16:53;100730.00;;;3.10
20092;BMP180;10205;49.678;6.560;2023-02-27T05:19:22;100726.00;;;3.10
20092;BMP180;10205;49.678;6.560;2023-02-27T05:21:58;100734.00;;;3.10
20092;BMP180;10205;49.678;6.560;2023-02-27T05:24:36;100728.00;;;3.10
20092;BMP180;10205;49.678;6.560;2023-02-27T05:27:19;100726.00;;;3.10
20092;BMP180;10205;49.678;6.560;2023-02-27T05:29:52;100721.00;;;3.00
20092;BMP180;10205;49.678;6.560;2023-02-27T05:32:34;100724.00;;;3.00
20092;BMP180;10205;49.678;6.560;2023-02-27T05:35:13;100725.00;;;3.00
20092;BMP180;10205;49.678;6.560;2023-02-27T05:37:49;100730.00;;;3.00
20092;BMP180;10205;49.678;6.560;2023-02-27T05:40:22;100740.00;;;3.00
20092;BMP180;10205;49.678;6.560;2023-02-27T05:42:57;100725.00;;;3.00
20092;BMP180;10205;49.678;6.560;2023-02-27T05:45:30;100729.00;;;3.00
20092;BMP180;10205;49.678;6.560;2023-02-27T05:48:05;100743.00;;;2.90
20092;BMP180;10205;49.678;6.560;2023-02-27T05:50:36;100735.00;;;2.90
20092;BMP180;10205;49.678;6.560;2023-02-27T05:53:08;100735.00;;;2.90
20092;BMP180;10205;49.678;6.560;2023-02-27T05:55:41;100735.00;;;2.90
20092;BMP180;10205;49.678;6.560;2023-02-27T05:58:15;100741.00;;;2.90
20092;BMP180;10205;49.678;6.560;2023-02-27T06:00:49;100745.00;;;2.90
20092;BMP180;10205;49.678;6.560;2023-02-27T06:03:20;100751.00;;;2.90
20092;BMP180;10205;49.678;6.560;2023-02-27T06:05:50;100743.00;;;2.80
20092;BMP180;10205;49.678;6.560;2023-02-27T06:08:19;100744.00;;;2.80
20092;BMP180;10205;49.678;6.560;2023-02-27T06:10:47;100756.00;;;2.80
20092;BMP180;10205;49.678;6.560;2023-02-27T06:13:14;100752.00;;;2.80
20092;BMP180;10205;49.678;6.560;2023-02-27T06:15:41;100749.00;;;2.80
20092;BMP180;10205;49.678;6.560;2023-02-27T06:18:09;100753.00;;;2.80
20092;BMP180;10205;49.678;6.560;2023-02-27T06:20:37;100764.00;;;2.80
20092;BMP180;10205;49.678;6.560;2023-02-27T06:23:05;100762.00;;;2.70
20092;BMP180;10205;49.678;6.560;2023-02-27T06:25:32;100782.00;;;2.70
20092;BMP180;10205;49.678;6.560;2023-02-27T06:28:00;100771.00;;;2.70
20092;BMP180;10205;49.678;6.560;2023-02-27T06:30:27;100778.00;;;2.70
20092;BMP180;10205;49.678;6.560;2023-02-27T06:32:54;100780.00;;;2.80
20092;BMP180;10205;49.678;6.560;2023-02-27T06:35:21;100780.00;;;2.70
20092;BMP180;10205;49.678;6.560;2023-02-27T06:37:50;100783.00;;;2.70
20092;BMP180;10205;49.678;6.560;2023-02-27T06:40:17;100788.00;;;2.70
20092;BMP180;10205;49.678;6.560;2023-02-27T06:42:44;100804.00;;;2.70
20092;BMP180;10205;49.678;6.560;2023-02-27T06:45:14;100794.00;;;2.70
20092;BMP180;10205;49.678;6.560;2023-02-27T06:47:42;100795.00;;;2.70
20092;BMP180;10205;49.678;6.560;2023-02-27T06:50:12;100799.00;;;2.70
20092;BMP180;10205;49.678;6.560;2023-02-27T06:52:40;100803.00;;;2.70
20092;BMP180;10205;49.678;6.560;2023-02-27T06:55:10;100808.00;;;2.70
20092;BMP180;10205;49.678;6.560;2023-02-27T06:57:37;100812.00;;;2.70
20092;BMP180;10205;49.678;6.560;2023-02-27T07:00:06;100805.00;;;2.70
20092;BMP180;10205;49.678;6.560;2023-02-27T07:02:34;100806.00;;;2.60
20092;BMP180;10205;49.678;6.560;2023-02-27T07:05:01;100805.00;;;2.60
20092;BMP180;10205;49.678;6.560;2023-02-27T07:07:28;100804.00;;;2.60
20092;BMP180;10205;49.678;6.560;2023-02-27T07:09:56;100805.00;;;2.60
20092;BMP180;10205;49.678;6.560;2023-02-27T07:12:24;100805.00;;;2.60
20092;BMP180;10205;49.678;6.560;2023-02-27T07:14:51;100811.00;;;2.60
20092;BMP180;10205;49.678;6.560;2023-02-27T07:17:18;100810.00;;;2.60
20092;BMP180;10205;49.678;6.560;2023-02-27T07:19:47;100807.00;;;2.60
20092;BMP180;10205;49.678;6.560;2023-02-27T07:22:14;100818.00;;;2.60
20092;BMP180;10205;49.678;6.560;2023-02-27T07:24:41;100820.00;;;2.70
20092;BMP180;10205;49.678;6.560;2023-02-27T07:27:14;100819.00;;;2.60
20092;BMP180;10205;49.678;6.560;2023-02-27T07:29:43;100822.00;;;2.70
20092;BMP180;10205;49.678;6.560;2023-02-27T07:32:10;100810.00;;;2.70
20092;BMP180;10205;49.678;6.560;2023-02-27T07:34:37;100807.00;;;2.70
20092;BMP180;10205;49.678;6.560;2023-02-27T07:37:06;100813.00;;;2.70
20092;BMP180;10205;49.678;6.560;2023-02-27T07:39:33;100812.00;;;2.70
20092;BMP180;10205;49.678;6.560;2023-02-27T07:42:00;100829.00;;;2.70
20092;BMP180;10205;49.678;6.560;2023-02-27T07:44:27;100818.00;;;2.70
20092;BMP180;10205;49.678;6.560;2023-02-27T07:46:56;100815.00;;;2.70
20092;BMP180;10205;49.678;6.560;2023-02-27T07:49:23;100817.00;;;2.70
20092;BMP180;10205;49.678;6.560;2023-02-27T07:51:50;100826.00;;;2.70
20092;BMP180;10205;49.678;6.560;2023-02-27T07:54:17;100816.00;;;2.70
20092;BMP180;10205;49.678;6.560;2023-02-27T07:56:44;100827.00;;;2.80
20092;BMP180;10205;49.678;6.560;2023-02-27T07:59:11;100833.00;;;2.80
20092;BMP180;10205;49.678;6.560;2023-02-27T08:01:38;100827.00;;;2.80
20092;BMP180;10205;49.678;6.560;2023-02-27T08:04:07;100816.00;;;2.80
20092;BMP180;10205;49.678;6.560;2023-02-27T08:06:34;100816.00;;;2.90
20092;BMP180;10205;49.678;6.560;2023-02-27T08:09:01;100817.00;;;2.90
20092;BMP180;10205;49.678;6.560;2023-02-27T08:11:28;100826.00;;;2.90
20092;BMP180;10205;49.678;6.560;2023-02-27T08:13:55;100837.00;;;2.90
20092;BMP180;10205;49.678;6.560;2023-02-27T08:16:22;100844.00;;;3.00
20092;BMP180;10205;49.678;6.560;2023-02-27T08:18:49;100834.00;;;3.00
20092;BMP180;10205;49.678;6.560;2023-02-27T08:21:18;100837.00;;;3.00
20092;BMP180;10205;49.678;6.560;2023-02-27T08:23:45;100826.00;;;3.10
20092;BMP180;10205;49.678;6.560;2023-02-27T08:26:12;100825.00;;;3.10
20092;BMP180;10205;49.678;6.560;2023-02-27T08:28:43;100821.00;;;3.10
20092;BMP180;10205;49.678;6.560;2023-02-27T08:31:10;100822.00;;;3.20
20092;BMP180;10205;49.678;6.560;2023-02-27T08:33:38;100831.00;;;3.20
20092;BMP180;10205;49.678;6.560;2023-02-27T08:36:06;100839.00;;;3.30
20092;BMP180;10205;49.678;6.560;2023-02-27T08:38:34;100845.00;;;3.30
20092;BMP180;10205;49.678;6.560;2023-02-27T08:41:02;100828.00;;;3.30
20092;BMP180;10205;49.678;6.560;2023-02-27T08:43:29;100832.00;;;3.40
20092;BMP180;10205;49.678;6.560;2023-02-27T08:45:56;100836.00;;;3.40
20092;BMP180;10205;49.678;6.560;2023-02-27T08:48:23;100821.00;;;3.50
20092;BMP180;10205;49.678;6.560;2023-02-27T08:50:53;100824.00;;;3.50
20092;BMP180;10205;49.678;6.560;2023-02-27T08:53:25;100832.00;;;3.60
20092;BMP180;10205;49.678;6.560;2023-02-27T08:55:54;100831.00;;;3.60
20092;BMP180;10205;49.678;6.560;2023-02-27T08:58:27;100813.00;;;3.70
20092;BMP180;10205;49.678;6.560;2023-02-27T09:00:54;100827.00;;;3.80
20092;BMP180;10205;49.678;6.560;2023-02-27T09:03:21;100822.00;;;3.80
20092;BMP180;10205;49.678;6.560;2023-02-27T09:05:53;100825.00;;;3.90
20092;BMP180;10205;49.678;6.560;2023-02-27T09:08:20;100820.00;;;3.90
20092;BMP180;10205;49.678;6.560;2023-02-27T09:10:47;100817.00;;;4.00
20092;BMP180;10205;49.678;6.560;2023-02-27T09:13:16;100815.00;;;4.10
20092;BMP180;10205;49.678;6.560;2023-02-27T09:15:46;100826.00;;;4.10
20092;BMP180;10205;49.678;6.560;2023-02-27T09:18:13;100809.00;;;4.20
20092;BMP180;10205;49.678;6.560;2023-02-27T09:20:40;100821.00;;;4.30
20092;BMP180;10205;49.678;6.560;2023-02-27T09:23:08;100847.00;;;4.30
20092;BMP180;10205;49.678;6.560;2023-02-27T09:25:37;100838.00;;;4.40
20092;BMP180;10205;49.678;6.560;2023-02-27T09:28:05;100828.00;;;4.50
20092;BMP180;10205;49.678;6.560;2023-02-27T09:30:33;100827.00;;;4.50
20092;BMP180;10205;49.678;6.560;2023-02-27T09:33:00;100821.00;;;4.60
20092;BMP180;10205;49.678;6.560;2023-02-27T09:35:27;100819.00;;;4.70
20092;BMP180;10205;49.678;6.560;2023-02-27T09:37:56;100815.00;;;4.70
20092;BMP180;10205;49.678;6.560;2023-02-27T09:40:26;100820.00;;;4.80
20092;BMP180;10205;49.678;6.560;2023-02-27T09:42:57;100826.00;;;4.90
20092;BMP180;10205;49.678;6.560;2023-02-27T09:45:28;100829.00;;;5.00
20092;BMP180;10205;49.678;6.560;2023-02-27T09:48:13;100821.00;;;5.00
20092;BMP180;10205;49.678;6.560;2023-02-27T09:50:44;100843.00;;;5.10
20092;BMP180;10205;49.678;6.560;2023-02-27T09:53:21;100835.00;;;5.20
20092;BMP180;10205;49.678;6.560;2023-02-27T09:55:53;100833.00;;;5.20
20092;BMP180;10205;49.678;6.560;2023-02-27T09:58:37;100823.00;;;5.30
20092;BMP180;10205;49.678;6.560;2023-02-27T10:01:14;100824.00;;;5.30
20092;BMP180;10205;49.678;6.560;2023-02-27T10:06:55;100819.00;;;5.50
20092;BMP180;10205;49.678;6.560;2023-02-27T10:09:42;100843.00;;;5.60
20092;BMP180;10205;49.678;6.560;2023-02-27T10:12:45;100830.00;;;5.70
20092;BMP180;10205;49.678;6.560;2023-02-27T10:15:25;100824.00;;;5.80
20092;BMP180;10205;49.678;6.560;2023-02-27T10:17:59;100810.00;;;5.80
20092;BMP180;10205;49.678;6.560;2023-02-27T10:20:31;100822.00;;;5.90
20092;BMP180;10205;49.678;6.560;2023-02-27T10:23:04;100831.00;;;6.00
20092;BMP180;10205;49.678;6.560;2023-02-27T10:25:38;100825.00;;;6.00
20092;BMP180;10205;49.678;6.560;2023-02-27T10:28:12;100829.00;;;6.10
20092;BMP180;10205;49.678;6.560;2023-02-27T10:30:40;100824.00;;;6.20
20092;BMP180;10205;49.678;6.560;2023-02-27T10:33:14;100818.00;;;6.20
20092;BMP180;10205;49.678;6.560;2023-02-27T10:35:45;100815.00;;;6.30
20092;BMP180;10205;49.678;6.560;2023-02-27T10:38:17;100808.00;;;6.40
20092;BMP180;10205;49.678;6.560;2023-02-27T10:40:46;100818.00;;;6.40
20092;BMP180;10205;49.678;6.560;2023-02-27T10:43:16;100811.00;;;6.50
20092;BMP180;10205;49.678;6.560;2023-02-27T10:45:46;100818.00;;;6.50
20092;BMP180;10205;49.678;6.560;2023-02-27T10:48:15;100820.00;;;6.60
20092;BMP180;10205;49.678;6.560;2023-02-27T10:50:46;100819.00;;;6.60
20092;BMP180;10205;49.678;6.560;2023-02-27T10:53:19;100820.00;;;6.70
20092;BMP180;10205;49.678;6.560;2023-02-27T10:55:57;100830.00;;;6.80
20092;BMP180;10205;49.678;6.560;2023-02-27T10:58:30;100835.00;;;6.80
20092;BMP180;10205;49.678;6.560;2023-02-27T11:01:00;100825.00;;;6.90
20092;BMP180;10205;49.678;6.560;2023-02-27T11:03:33;100830.00;;;6.90
20092;BMP180;10205;49.678;6.560;2023-02-27T11:06:07;100818.00;;;6.90
20092;BMP180;10205;49.678;6.560;2023-02-27T11:08:37;100829.00;;;7.00
20092;BMP180;10205;49.678;6.560;2023-02-27T11:11:08;100815.00;;;7.00
20092;BMP180;10205;49.678;6.560;2023-02-27T11:13:38;100826.00;;;7.10
20092;BMP180;10205;49.678;6.560;2023-02-27T11:16:12;100832.00;;;7.10
20092;BMP180;10205;49.678;6.560;2023-02-27T11:18:41;100833.00;;;7.20
20092;BMP180;10205;49.678;6.560;2023-02-27T11:21:20;100824.00;;;7.20
20092;BMP180;10205;49.678;6.560;2023-02-27T11:23:57;100820.00;;;7.20
20092;BMP180;10205;49.678;6.560;2023-02-27T11:26:31;100819.00;;;7.30
20092;BMP180;10205;49.678;6.560;2023-02-27T11:29:17;100820.00;;;7.30
20092;BMP180;10205;49.678;6.560;2023-02-27T11:31:52;100816.00;;;7.40
20092;BMP180;10205;49.678;6.560;2023-02-27T11:34:29;100836.00;;;7.40
20092;BMP180;10205;49.678;6.560;2023-02-27T11:37:01;100809.00;;;7.40
20092;BMP180;10205;49.678;6.560;2023-02-27T11:39:34;100807.00;;;7.50
20092;BMP180;10205;49.678;6.560;2023-02-27T11:42:16;100798.00;;;7.50
20092;BMP180;10205;49.678;6.560;2023-02-27T11:44:55;100819.00;;;7.50
20092;BMP180;10205;49.678;6.560;2023-02-27T11:47:28;100811.00;;;7.60
20092;BMP180;10205;49.678;6.560;2023-02-27T11:50:34;100799.00;;;7.60
20092;BMP180;10205;49.678;6.560;2023-02-27T11:53:28;100804.00;;;7.70
20092;BMP180;10205;49.678;6.560;2023-02-27T11:56:02;100797.00;;;7.70
20092;BMP180;10205;49.678;6.560;2023-02-27T11:58:39;100783.00;;;7.80
20092;BMP180;10205;49.678;6.560;2023-02-27T12:01:20;100791.00;;;7.80
20092;BMP180;10205;49.678;6.560;2023-02-27T12:03:58;100781.00;;;7.90
20092;BMP180;10205;49.678;6.560;2023-02-27T12:06:40;100782.00;;;7.90
20092;BMP180;10205;49.678;6.560;2023-02-27T12:09:33;100776.00;;;8.00
20092;BMP180;10205;49.678;6.560;2023-02-27T12:12:12;100773.00;;;8.00
20092;BMP180;10205;49.678;6.560;2023-02-27T12:14:54;100770.00;;;8.10
20092;BMP180;10205;49.678;6.560;2023-02-27T12:17:30;100768.00;;;8.10
20092;BMP180;10205;49.678;6.560;2023-02-27T12:20:17;100770.00;;;8.10
20092;BMP180;10205;49.678;6.560;2023-02-27T12:22:51;100750.00;;;8.20
20092;BMP180;10205;49.678;6.560;2023-02-27T12:25:37;100754.00;;;8.20
20092;BMP180;10205;49.678;6.560;2023-02-27T12:28:35;100748.00;;;8.20
20092;BMP180;10205;49.678;6.560;2023-02-27T12:31:36;100751.00;;;8.20
20092;BMP180;10205;49.678;6.560;2023-02-27T12:34:24;100741.00;;;8.20
20092;BMP180;10205;49.678;6.560;2023-02-27T12:37:00;100739.00;;;8.20
20092;BMP180;10205;49.678;6.560;2023-02-27T12:39:31;100741.00;;;8.30
20092;BMP180;10205;49.678;6.560;2023-02-27T12:42:26;100739.00;;;8.30
20092;BMP180;10205;49.678;6.560;2023-02-27T12:48:40;100737.00;;;8.30
20092;BMP180;10205;49.678;6.560;2023-02-27T12:51:29;100729.00;;;8.30
20092;BMP180;10205;49.678;6.560;2023-02-27T12:54:13;100725.00;;;8.30
20092;BMP180;10205;49.678;6.560;2023-02-27T12:56:58;100736.00;;;8.40
20092;BMP180;10205;49.678;6.560;2023-02-27T12:59:46;100730.00;;;8.40
20092;BMP180;10205;49.678;6.560;2023-02-27T13:02:46;100729.00;;;8.40
20092;BMP180;10205;49.678;6.560;2023-02-27T13:05:30;100731.00;;;8.40
20092;BMP180;10205;49.678;6.560;2023-02-27T13:08:13;100734.00;;;8.50
20092;BMP180;10205;49.678;6.560;2023-02-27T13:10:50;100737.00;;;8.50
20092;BMP180;10205;49.678;6.560;2023-02-27T13:13:26;100737.00;;;8.50
20092;BMP180;10205;49.678;6.560;2023-02-27T13:15:59;100726.00;;;8.50
20092;BMP180;10205;49.678;6.560;2023-02-27T13:18:40;100727.00;;;8.50
20092;BMP180;10205;49.678;6.560;2023-02-27T13:21:12;100736.00;;;8.60
20092;BMP180;10205;49.678;6.560;2023-02-27T13:23:57;100729.00;;;8.60
20092;BMP180;10205;49.678;6.560;2023-02-27T13:26:33;100730.00;;;8.60
20092;BMP180;10205;49.678;6.560;2023-02-27T13:29:02;100740.00;;;8.60
20092;BMP180;10205;49.678;6.560;2023-02-27T13:31:44;100731.00;;;8.60
20092;BMP180;10205;49.678;6.560;2023-02-27T13:34:21;100729.00;;;8.60
20092;BMP180;10205;49.678;6.560;2023-02-27T13:37:02;100735.00;;;8.60
20092;BMP180;10205;49.678;6.560;2023-02-27T13:39:50;100709.00;;;8.60
20092;BMP180;10205;49.678;6.560;2023-02-27T13:42:51;100741.00;;;8.60
20092;BMP180;10205;49.678;6.560;2023-02-27T13:45:50;100749.00;;;8.60
20092;BMP180;10205;49.678;6.560;2023-02-27T13:49:05;100727.00;;;8.50
20092;BMP180;10205;49.678;6.560;2023-02-27T13:51:49;100736.00;;;8.50
20092;BMP180;10205;49.678;6.560;2023-02-27T13:54:31;100735.00;;;8.50
20092;BMP180;10205;49.678;6.560;2023-02-27T13:57:22;100725.00;;;8.50
20092;BMP180;10205;49.678;6.560;2023-02-27T14:00:00;100726.00;;;8.50
20092;BMP180;10205;49.678;6.560;2023-02-27T14:02:42;100726.00;;;8.60
20092;BMP180;10205;49.678;6.560;2023-02-27T14:05:15;100730.00;;;8.60
20092;BMP180;10205;49.678;6.560;2023-02-27T14:07:57;100734.00;;;8.60
20092;BMP180;10205;49.678;6.560;2023-02-27T14:10:28;100740.00;;;8.60
20092;BMP180;10205;49.678;6.560;2023-02-27T14:12:57;100724.00;;;8.60
20092;BMP180;10205;49.678;6.560;2023-02-27T14:15:55;100743.00;;;8.60
20092;BMP180;10205;49.678;6.560;2023-02-27T14:18:58;100722.00;;;8.60
20092;BMP180;10205;49.678;6.560;2023-02-27T14:21:59;100727.00;;;8.60
20092;BMP180;10205;49.678;6.560;2023-02-27T14:24:33;100736.00;;;8.60
20092;BMP180;10205;49.678;6.560;2023-02-27T14:27:05;100732.00;;;8.60
20092;BMP180;10205;49.678;6.560;2023-02-27T14:29:44;100736.00;;;8.60
20092;BMP180;10205;49.678;6.560;2023-02-27T14:32:18;100734.00;;;8.60
20092;BMP180;10205;49.678;6.560;2023-02-27T14:34:47;100751.00;;;8.60
20092;BMP180;10205;49.678;6.560;2023-02-27T14:37:21;100758.00;;;8.60
20092;BMP180;10205;49.678;6.560;2023-02-27T14:39:52;100745.00;;;8.60
20092;BMP180;10205;49.678;6.560;2023-02-27T14:42:38;100737.00;;;8.60
20092;BMP180;10205;49.678;6.560;2023-02-27T14:45:13;100746.00;;;8.60
20092;BMP180;10205;49.678;6.560;2023-02-27T14:47:45;100740.00;;;8.60
20092;BMP180;10205;49.678;6.560;2023-02-27T14:50:25;100733.00;;;8.60
20092;BMP180;10205;49.678;6.560;2023-02-27T14:52:54;100737.00;;;8.60
20092;BMP180;10205;49.678;6.560;2023-02-27T14:55:25;100737.00;;;8.60
20092;BMP180;10205;49.678;6.560;2023-02-27T14:57:58;100739.00;;;8.60
20092;BMP180;10205;49.678;6.560;2023-02-27T15:00:37;100732.00;;;8.60
20092;BMP180;10205;49.678;6.560;2023-02-27T15:03:20;100732.00;;;8.70